Time;durP1;ratioP1;P1;durP2;ratioP2;P2;SDS_P1;SDS_P2;PMS_P1;PMS_P2;Temp;Humidity;BMP_temperature;BMP_pressure;BME280_temperature;BME280_humidity;BME280_pressure;Samples;Min_cycle;Max_cycle;Signal;HPM_P1;HPM_P2
2020/12/09 00:00:12;;;;;;;22.58;3.30;;;;;;;5.99;100.00;101171.13;5093025;28;20513;-65
2020/12/09 00:02:39;;;;;;;18.63;2.70;;;;;;;5.99;100.00;101166.53;5092888;28;20032;-65
2020/12/09 00:05:08;;;;;;;20.60;2.85;;;;;;;6.02;100.00;101162.56;5092821;28;20529;-66
2020/12/09 00:07:35;;;;;;;15.07;2.78;;;;;;;6.06;100.00;101161.13;5093041;28;20036;-64
2020/12/09 00:10:01;;;;;;;24.83;3.42;;;;;;;6.10;100.00;101162.41;5092836;28;20043;-65
2020/12/09 00:12:30;;;;;;;16.77;2.55;;;;;;;6.14;100.00;101163.66;5092836;28;20062;-67
2020/12/09 00:14:57;;;;;;;14.05;2.75;;;;;;;6.17;100.00;101173.25;5092859;28;20394;-66
2020/12/09 00:17:23;;;;;;;16.83;3.80;;;;;;;6.18;100.00;101162.19;5092460;28;20284;-66
2020/12/09 00:19:49;;;;;;;15.43;3.30;;;;;;;6.21;100.00;101169.91;5092357;28;20127;-66
2020/12/09 00:22:14;;;;;;;13.73;3.45;;;;;;;6.26;100.00;101162.00;5092678;28;20044;-64
2020/12/09 00:24:40;;;;;;;25.25;3.97;;;;;;;6.29;100.00;101167.03;5092492;28;20051;-65
2020/12/09 00:27:06;;;;;;;13.07;3.45;;;;;;;6.34;100.00;101164.53;5092313;28;20485;-64
2020/12/09 00:29:31;;;;;;;19.08;4.78;;;;;;;6.39;100.00;101172.03;5092522;28;20113;-64
2020/12/09 00:31:57;;;;;;;22.77;3.20;;;;;;;6.44;100.00;101163.28;5092570;28;20085;-67
2020/12/09 00:34:23;;;;;;;23.52;4.15;;;;;;;6.45;100.00;101159.53;5092334;28;20114;-65
2020/12/09 00:36:48;;;;;;;18.85;4.07;;;;;;;6.45;100.00;101159.53;5092347;28;20028;-64
2020/12/09 00:39:14;;;;;;;17.55;3.90;;;;;;;6.43;100.00;101161.63;5092305;28;20043;-66
2020/12/09 00:41:39;;;;;;;15.43;2.90;;;;;;;6.42;100.00;101157.22;5092266;28;20043;-65
2020/12/09 00:44:05;;;;;;;14.93;2.88;;;;;;;6.42;100.00;101165.34;5092405;28;20040;-65
2020/12/09 00:46:30;;;;;;;13.32;2.40;;;;;;;6.42;100.00;101176.19;5092133;28;20039;-64
2020/12/09 00:48:56;;;;;;;28.40;3.50;;;;;;;6.40;100.00;101172.88;5092193;28;20047;-68
2020/12/09 00:51:24;;;;;;;13.07;2.25;;;;;;;6.33;100.00;101179.13;5092078;28;20044;-65
2020/12/09 00:53:50;;;;;;;23.80;2.70;;;;;;;6.25;100.00;101173.06;5091904;28;20088;-65
2020/12/09 00:56:16;;;;;;;17.00;2.28;;;;;;;6.17;100.00;101181.38;5091905;28;20127;-65
2020/12/09 00:58:41;;;;;;;27.15;2.85;;;;;;;6.12;100.00;101176.59;5091773;28;20047;-67
2020/12/09 01:01:10;;;;;;;21.70;2.80;;;;;;;6.08;100.00;101190.75;5091996;28;20040;-63
2020/12/09 01:03:36;;;;;;;15.20;2.92;;;;;;;6.03;100.00;101183.22;5091884;28;20060;-65
2020/12/09 01:06:04;;;;;;;22.98;3.08;;;;;;;5.99;100.00;101176.53;5091819;28;20047;-66
2020/12/09 01:08:30;;;;;;;15.63;2.58;;;;;;;5.95;100.00;101180.72;5090598;28;20485;-65
2020/12/09 01:10:56;;;;;;;14.07;2.08;;;;;;;5.92;100.00;101175.69;5091775;28;20063;-64
2020/12/09 01:13:22;;;;;;;21.08;3.55;;;;;;;5.88;100.00;101174.38;5091602;28;20038;-64
2020/12/09 01:15:48;;;;;;;15.82;2.42;;;;;;;5.84;100.00;101178.53;5091698;28;20512;-64
2020/12/09 01:18:14;;;;;;;23.48;3.28;;;;;;;5.82;100.00;101175.19;5091513;28;20040;-67
2020/12/09 01:20:39;;;;;;;12.43;2.75;;;;;;;5.82;100.00;101180.63;5091749;28;20039;-64
2020/12/09 01:23:05;;;;;;;26.48;3.13;;;;;;;5.79;100.00;101186.44;5091583;28;20075;-65
2020/12/09 01:25:32;;;;;;;12.48;2.88;;;;;;;5.78;100.00;101192.91;5090137;28;20050;-65
2020/12/09 01:28:02;;;;;;;19.27;2.63;;;;;;;5.77;100.00;101188.53;5091320;28;20063;-63
2020/12/09 01:30:29;;;;;;;18.75;2.50;;;;;;;5.77;100.00;101199.38;5090651;28;20538;-65
2020/12/09 01:32:55;;;;;;;25.40;3.33;;;;;;;5.79;100.00;101208.13;5091303;28;20059;-64
2020/12/09 01:35:21;;;;;;;15.35;2.40;;;;;;;5.78;100.00;101206.47;5091724;28;20039;-66
2020/12/09 01:37:47;;;;;;;11.90;2.78;;;;;;;5.80;100.00;101207.09;5091460;28;20299;-64
2020/12/09 01:40:13;;;;;;;14.40;2.08;;;;;;;5.87;100.00;101205.22;5091483;28;20138;-66
2020/12/09 01:42:39;;;;;;;23.83;3.85;;;;;;;5.93;100.00;101213.44;5091225;28;20485;-65
2020/12/09 01:45:05;;;;;;;15.57;2.00;;;;;;;5.99;100.00;101207.19;5091274;28;20032;-65
2020/12/09 01:47:31;;;;;;;19.80;2.92;;;;;;;6.03;100.00;101208.47;5091084;28;20039;-63
2020/12/09 01:49:58;;;;;;;15.65;2.30;;;;;;;6.05;100.00;101213.69;5091271;28;20040;-65
2020/12/09 01:52:24;;;;;;;13.40;2.00;;;;;;;6.05;100.00;101219.94;5091234;28;20032;-64
2020/12/09 01:54:55;;;;;;;10.00;2.30;;;;;;;6.04;100.00;101212.00;5091216;28;20031;-65
2020/12/09 01:57:22;;;;;;;11.15;2.03;;;;;;;6.03;100.00;101204.91;5090989;28;20024;-65
2020/12/09 01:59:47;;;;;;;14.80;1.95;;;;;;;6.01;100.00;101204.28;5091085;28;20039;-66
2020/12/09 02:02:13;;;;;;;14.40;2.33;;;;;;;5.98;100.00;101208.25;5091030;28;20055;-65
2020/12/09 02:04:41;;;;;;;14.65;2.25;;;;;;;5.95;100.00;101211.38;5091081;28;20075;-65
2020/12/09 02:07:07;;;;;;;14.05;2.50;;;;;;;5.91;100.00;101206.56;5090831;28;20032;-65
2020/12/09 02:09:33;;;;;;;15.43;2.47;;;;;;;5.86;100.00;101196.28;5091101;28;20051;-66
2020/12/09 02:11:58;;;;;;;15.25;2.15;;;;;;;5.82;100.00;101203.13;5091025;28;20059;-65
2020/12/09 02:14:25;;;;;;;18.88;2.75;;;;;;;5.79;100.00;101200.00;5090974;28;20071;-65
2020/12/09 02:16:52;;;;;;;12.73;2.33;;;;;;;5.77;100.00;101210.22;5090931;28;20028;-65
2020/12/09 02:19:18;;;;;;;16.67;2.47;;;;;;;5.73;100.00;101205.19;5091246;28;20050;-65
2020/12/09 02:21:44;;;;;;;12.82;1.70;;;;;;;5.70;100.00;101204.75;5089579;28;20028;-65
2020/12/09 02:24:10;;;;;;;11.50;2.08;;;;;;;5.68;100.00;101201.41;5123513;28;20032;-65
2020/12/09 02:26:41;;;;;;;11.00;1.83;;;;;;;5.66;100.00;101204.31;5090785;28;20101;-63
2020/12/09 02:29:06;;;;;;;12.98;1.80;;;;;;;5.67;100.00;101211.41;5090884;28;20032;-64
2020/12/09 02:31:32;;;;;;;14.23;1.92;;;;;;;5.68;100.00;101199.53;5090853;28;20395;-65
2020/12/09 02:33:57;;;;;;;17.42;2.00;;;;;;;5.69;100.00;101195.78;5090631;28;20094;-66
2020/12/09 02:36:23;;;;;;;13.85;2.13;;;;;;;5.70;100.00;101205.56;5090815;28;20028;-66
2020/12/09 02:38:48;;;;;;;15.45;2.17;;;;;;;5.67;100.00;101214.13;5089187;28;20039;-65
2020/12/09 02:41:14;;;;;;;14.23;2.20;;;;;;;5.66;100.00;101220.56;5091561;28;20032;-64
2020/12/09 02:43:39;;;;;;;12.27;2.67;;;;;;;5.64;100.00;101219.94;5094561;28;20489;-65
2020/12/09 02:46:05;;;;;;;19.27;3.22;;;;;;;5.66;100.00;101225.16;5076222;28;20048;-66
2020/12/09 02:48:31;;;;;;;15.75;1.88;;;;;;;5.66;100.00;101233.28;5094360;28;20543;-65
2020/12/09 02:50:56;;;;;;;13.80;2.45;;;;;;;5.69;100.00;101241.84;5094449;28;20047;-63
2020/12/09 02:53:22;;;;;;;11.68;2.17;;;;;;;5.71;100.00;101234.34;5094215;28;20032;-65
2020/12/09 02:55:48;;;;;;;10.68;2.38;;;;;;;5.73;100.00;101243.16;5094257;28;20024;-66
2020/12/09 02:58:14;;;;;;;15.18;2.22;;;;;;;5.77;100.00;101237.31;5094077;28;20105;-65
2020/12/09 03:00:39;;;;;;;13.43;3.03;;;;;;;5.81;100.00;101239.41;5094326;28;20097;-65
2020/12/09 03:03:05;;;;;;;9.07;1.25;;;;;;;5.89;100.00;101230.25;5094174;28;20047;-64
2020/12/09 03:05:30;;;;;;;13.60;2.90;;;;;;;5.97;100.00;101227.44;5094108;28;20066;-64
2020/12/09 03:07:56;;;;;;;19.80;2.33;;;;;;;6.02;100.00;101224.94;5093992;28;20080;-64
2020/12/09 03:10:21;;;;;;;5.47;1.52;;;;;;;6.06;100.00;101226.19;5094041;28;20382;-65
2020/12/09 03:12:47;;;;;;;6.55;1.25;;;;;;;6.11;100.00;101231.03;5093916;28;20127;-64
2020/12/09 03:15:12;;;;;;;15.80;1.75;;;;;;;6.16;100.00;101236.66;5093903;28;20036;-64
2020/12/09 03:17:38;;;;;;;7.38;1.45;;;;;;;6.17;100.00;101228.31;5093794;28;20039;-64
2020/12/09 03:20:04;;;;;;;11.00;1.70;;;;;;;6.16;100.00;101226.66;5093943;28;20036;-66
2020/12/09 03:22:29;;;;;;;10.73;1.90;;;;;;;6.12;100.00;101228.13;5092420;28;20499;-65
2020/12/09 03:24:55;;;;;;;10.05;1.45;;;;;;;6.08;100.00;101224.13;5094185;28;20043;-66
2020/12/09 03:27:20;;;;;;;12.80;1.67;;;;;;;6.01;100.00;101225.97;5093423;28;20032;-64
2020/12/09 03:29:46;;;;;;;11.40;2.47;;;;;;;5.98;100.00;101226.38;5093557;28;20123;-67
2020/12/09 03:32:12;;;;;;;10.65;1.88;;;;;;;5.94;100.00;101222.41;5092177;28;20047;-65
2020/12/09 03:34:37;;;;;;;11.85;1.55;;;;;;;5.91;100.00;101228.25;5093405;28;20052;-64
2020/12/09 03:37:03;;;;;;;9.75;1.55;;;;;;;5.87;100.00;101238.59;5093408;28;20035;-66
2020/12/09 03:39:28;;;;;;;8.27;1.30;;;;;;;5.84;100.00;101238.16;5093444;28;20489;-67
2020/12/09 03:41:54;;;;;;;9.88;1.65;;;;;;;5.82;100.00;101240.25;5093305;28;20047;-63
2020/12/09 03:44:19;;;;;;;14.25;1.85;;;;;;;5.81;100.00;101234.00;5093395;28;20036;-63
2020/12/09 03:46:45;;;;;;;11.20;1.40;;;;;;;5.81;100.00;101227.75;5093055;28;20042;-65
2020/12/09 03:49:11;;;;;;;10.07;2.78;;;;;;;5.80;100.00;101231.50;5093118;28;20394;-65
2020/12/09 03:51:36;;;;;;;13.40;1.42;;;;;;;5.79;100.00;101227.09;5093277;28;20106;-64
2020/12/09 03:54:03;;;;;;;16.13;2.55;;;;;;;5.78;100.00;101228.97;5090918;28;20128;-65
2020/12/09 03:56:29;;;;;;;16.48;1.80;;;;;;;5.77;100.00;101221.06;5092955;28;20067;-66
2020/12/09 03:58:55;;;;;;;16.45;2.33;;;;;;;5.75;100.00;101215.84;5092967;28;20109;-64
2020/12/09 04:01:20;;;;;;;13.75;2.35;;;;;;;5.77;100.00;101221.88;5093012;28;20067;-63
2020/12/09 04:03:46;;;;;;;10.40;1.85;;;;;;;5.79;100.00;101218.97;5092878;28;20047;-65
2020/12/09 04:06:11;;;;;;;14.15;2.33;;;;;;;5.80;100.00;101209.81;5092862;28;20036;-64
2020/12/09 04:08:37;;;;;;;11.85;1.83;;;;;;;5.84;100.00;101216.47;5092755;28;20043;-66
2020/12/09 04:11:02;;;;;;;16.13;2.70;;;;;;;5.84;100.00;101211.06;5091481;28;20074;-64
2020/12/09 04:13:28;;;;;;;10.57;2.30;;;;;;;5.84;100.00;101211.91;5092645;28;20089;-65
2020/12/09 04:15:54;;;;;;;17.98;1.67;;;;;;;5.83;100.00;101210.22;5092695;28;20060;-65
2020/12/09 04:18:19;;;;;;;16.83;1.77;;;;;;;5.82;100.00;101213.97;5092490;28;20035;-63
2020/12/09 04:20:45;;;;;;;24.27;3.17;;;;;;;5.80;100.00;101226.91;5092634;28;20535;-64
2020/12/09 04:23:10;;;;;;;16.23;1.85;;;;;;;5.75;100.00;101224.81;5092509;28;20440;-65
2020/12/09 04:25:36;;;;;;;17.23;2.08;;;;;;;5.73;100.00;101229.59;5092508;28;20474;-64
2020/12/09 04:28:01;;;;;;;10.95;2.13;;;;;;;5.69;100.00;101220.16;5092324;28;20527;-64
2020/12/09 04:30:27;;;;;;;15.32;2.67;;;;;;;5.65;100.00;101229.75;5092321;28;20032;-67
2020/12/09 04:32:53;;;;;;;13.48;1.73;;;;;;;5.62;100.00;101223.88;5092310;28;20039;-65
2020/12/09 04:35:18;;;;;;;12.68;1.73;;;;;;;5.59;100.00;101219.72;5092666;28;20413;-65
2020/12/09 04:37:45;;;;;;;8.43;1.35;;;;;;;5.58;100.00;101218.03;5092060;28;20123;-64
2020/12/09 04:40:11;;;;;;;12.80;2.28;;;;;;;5.57;100.00;101221.78;5092265;28;20043;-66
2020/12/09 04:42:37;;;;;;;10.85;1.67;;;;;;;5.57;100.00;101221.78;5092146;28;20032;-65
2020/12/09 04:45:03;;;;;;;16.65;2.05;;;;;;;5.55;100.00;101215.72;5092349;28;20387;-63
2020/12/09 04:47:41;;;;;;;10.45;1.50;;;;;;;5.54;100.00;101205.91;5091927;28;20036;-66
2020/12/09 04:50:11;;;;;;;10.27;1.50;;;;;;;5.53;100.00;101206.13;5092088;28;20036;-65
2020/12/09 04:52:44;;;;;;;12.98;1.70;;;;;;;5.53;100.00;101204.25;5092296;28;20047;-64
2020/12/09 04:55:11;;;;;;;7.95;1.67;;;;;;;5.54;100.00;101205.91;5091961;28;20071;-63
2020/12/09 04:57:37;;;;;;;14.40;2.05;;;;;;;5.55;100.00;101201.31;5091795;28;20044;-66
2020/12/09 05:00:13;;;;;;;12.15;2.35;;;;;;;5.55;100.00;101213.00;5091955;28;20081;-64
2020/12/09 05:02:46;;;;;;;10.38;1.33;;;;;;;5.56;100.00;101211.16;5091713;28;20122;-64
2020/12/09 05:05:14;;;;;;;9.30;1.38;;;;;;;5.57;100.00;101213.66;5091646;28;20032;-65
2020/12/09 05:07:45;;;;;;;19.48;2.00;;;;;;;5.59;100.00;101219.72;5091622;28;20143;-64
2020/12/09 05:10:14;;;;;;;12.38;2.08;;;;;;;5.59;100.00;101210.75;5091931;28;20488;-64
2020/12/09 05:12:42;;;;;;;12.15;1.40;;;;;;;5.57;100.00;101213.66;5091749;28;20044;-64
2020/12/09 05:15:20;;;;;;;10.82;1.88;;;;;;;5.55;100.00;101212.16;5090473;28;20028;-63
2020/12/09 05:18:01;;;;;;;14.07;1.65;;;;;;;5.52;100.00;101208.00;5091945;28;20111;-65
2020/12/09 05:20:35;;;;;;;17.27;1.75;;;;;;;5.52;100.00;101213.41;5091812;28;20047;-65
2020/12/09 05:23:06;;;;;;;10.15;1.60;;;;;;;5.52;100.00;101213.41;5091632;28;20039;-66
2020/12/09 05:25:33;;;;;;;5.88;1.17;;;;;;;5.55;100.00;101212.16;5091564;28;20074;-64
2020/12/09 05:28:00;;;;;;;20.88;3.97;;;;;;;5.58;100.00;101218.03;5091397;28;20047;-65
2020/12/09 05:30:45;;;;;;;13.52;2.08;;;;;;;5.61;100.00;101222.22;5091505;28;20051;-65
2020/12/09 05:33:16;;;;;;;15.93;2.40;;;;;;;5.62;100.00;101213.88;5091595;28;20484;-65
2020/12/09 05:35:42;;;;;;;11.13;2.05;;;;;;;5.64;100.00;101219.94;5091589;28;20386;-66
2020/12/09 05:38:18;;;;;;;8.45;2.53;;;;;;;5.67;100.00;101216.00;5091261;28;20061;-65
2020/12/09 05:40:46;;;;;;;10.45;1.85;;;;;;;5.71;100.00;101212.66;5091377;28;20051;-64
2020/12/09 05:43:12;;;;;;;10.80;1.20;;;;;;;5.77;100.00;101218.34;5091302;28;20032;-63
2020/12/09 05:45:39;;;;;;;12.25;1.63;;;;;;;5.84;100.00;101224.63;5091572;28;20044;-65
2020/12/09 05:48:22;;;;;;;11.43;1.70;;;;;;;5.89;100.00;101224.84;5091298;28;20093;-63
2020/12/09 05:50:59;;;;;;;13.90;1.45;;;;;;;5.95;100.00;101218.66;5091397;28;20028;-65
2020/12/09 05:53:35;;;;;;;12.35;1.75;;;;;;;6.00;100.00;101221.59;5091251;28;20065;-67
2020/12/09 05:56:18;;;;;;;19.90;2.45;;;;;;;6.06;100.00;101215.34;5091339;28;20394;-64
2020/12/09 05:58:48;;;;;;;10.45;1.67;;;;;;;6.11;100.00;101220.19;5091093;28;20047;-65
2020/12/09 06:01:19;;;;;;;16.90;1.58;;;;;;;6.17;100.00;101225.63;5091059;28;20035;-67
2020/12/09 06:03:48;;;;;;;10.25;1.20;;;;;;;6.19;100.00;101219.97;5091003;28;20028;-64
2020/12/09 06:06:15;;;;;;;13.57;1.73;;;;;;;6.21;100.00;101220.63;5091066;28;20044;-65
2020/12/09 06:08:49;;;;;;;8.00;2.13;;;;;;;6.24;100.00;101234.59;5091038;28;20028;-65
2020/12/09 06:11:17;;;;;;;10.57;1.42;;;;;;;6.23;100.00;101235.63;5091079;28;20046;-65
2020/12/09 06:13:42;;;;;;;7.88;1.20;;;;;;;6.21;100.00;101229.59;5090919;28;20036;-63
2020/12/09 06:16:10;;;;;;;14.18;2.08;;;;;;;6.18;100.00;101231.88;5090372;28;20097;-62
2020/12/09 06:18:39;;;;;;;23.67;2.30;;;;;;;6.14;100.00;101228.75;5094900;28;20036;-65
2020/12/09 06:21:05;;;;;;;11.38;2.53;;;;;;;6.09;100.00;101231.25;5095009;28;20038;-66
2020/12/09 06:23:31;;;;;;;9.00;1.67;;;;;;;6.04;100.00;101228.28;5095039;28;20088;-65
2020/12/09 06:26:00;;;;;;;16.80;1.55;;;;;;;5.99;100.00;101233.47;5094922;28;20040;-65
2020/12/09 06:28:27;;;;;;;8.73;1.77;;;;;;;5.94;100.00;101238.69;5094730;28;20032;-64
2020/12/09 06:30:55;;;;;;;19.23;2.58;;;;;;;5.90;100.00;101238.25;5094813;28;20047;-65
2020/12/09 06:33:42;;;;;;;7.78;1.40;;;;;;;5.87;100.00;101238.59;5094528;28;20101;-64
2020/12/09 06:36:14;;;;;;;12.05;1.63;;;;;;;5.87;100.00;101226.91;5094753;28;20035;-66
2020/12/09 06:38:40;;;;;;;10.10;1.48;;;;;;;5.87;100.00;101232.34;5094602;28;20462;-64
2020/12/09 06:41:06;;;;;;;11.70;1.77;;;;;;;5.88;100.00;101224.00;5094720;28;20028;-66
2020/12/09 06:43:32;;;;;;;14.35;1.83;;;;;;;5.91;100.00;101222.81;5094588;28;20043;-63
2020/12/09 06:45:58;;;;;;;10.80;1.83;;;;;;;5.92;100.00;101224.50;5094473;28;20138;-66
2020/12/09 06:48:24;;;;;;;13.02;2.20;;;;;;;5.91;100.00;101233.66;5094443;28;20119;-63
2020/12/09 06:50:51;;;;;;;16.58;2.33;;;;;;;5.92;100.00;101221.78;5094463;28;20039;-66
2020/12/09 06:53:21;;;;;;;6.15;1.98;;;;;;;5.90;100.00;101222.00;5094835;28;20036;-65
2020/12/09 06:55:51;;;;;;;11.70;1.50;;;;;;;5.90;100.00;101221.13;5094465;28;20470;-64
2020/12/09 06:58:29;;;;;;;10.38;1.40;;;;;;;5.86;100.00;101220.66;5094255;28;20483;-64
2020/12/09 07:01:05;;;;;;;8.20;1.38;;;;;;;5.82;100.00;101219.41;5094234;28;20459;-66
2020/12/09 07:03:31;;;;;;;14.68;1.60;;;;;;;5.80;100.00;101226.06;5094042;28;20047;-64
2020/12/09 07:05:58;;;;;;;6.28;1.85;;;;;;;5.77;100.00;101224.59;5092668;28;20079;-64
2020/12/09 07:08:23;;;;;;;12.30;1.67;;;;;;;5.72;100.00;101221.63;5093978;28;20046;-66
2020/12/09 07:10:49;;;;;;;14.23;2.17;;;;;;;5.69;100.00;101209.31;5094096;28;20036;-65
2020/12/09 07:13:18;;;;;;;8.48;2.58;;;;;;;5.67;100.00;101205.97;5094069;28;20036;-66
2020/12/09 07:15:50;;;;;;;10.73;1.60;;;;;;;5.64;100.00;101206.38;5094049;28;20521;-64
2020/12/09 07:18:15;;;;;;;11.85;1.35;;;;;;;5.62;100.00;101211.19;5093668;28;20039;-66
2020/12/09 07:20:42;;;;;;;9.52;1.52;;;;;;;5.60;100.00;101202.41;5092624;28;20224;-64
2020/12/09 07:23:08;;;;;;;13.15;2.22;;;;;;;5.59;100.00;101214.28;5093672;28;20047;-65
2020/12/09 07:25:35;;;;;;;21.02;2.10;;;;;;;5.58;100.00;101212.63;5092278;28;20050;-63
2020/12/09 07:28:01;;;;;;;9.40;1.52;;;;;;;5.58;100.00;101212.63;5092212;28;20040;-65
2020/12/09 07:30:27;;;;;;;10.98;1.85;;;;;;;5.59;100.00;101217.00;5093694;28;20028;-64
2020/12/09 07:32:54;;;;;;;13.55;2.33;;;;;;;5.60;100.00;101218.69;5093572;28;20089;-64
2020/12/09 07:35:20;;;;;;;19.35;1.55;;;;;;;5.64;100.00;101221.81;5093323;28;20562;-65
2020/12/09 07:37:51;;;;;;;12.95;1.40;;;;;;;5.65;100.00;101224.31;5093325;28;20498;-65
2020/12/09 07:40:29;;;;;;;10.32;1.33;;;;;;;5.69;100.00;101227.47;5093399;28;20039;-66
2020/12/09 07:43:03;;;;;;;6.78;1.30;;;;;;;5.72;100.00;101224.34;5093436;28;20032;-66
2020/12/09 07:45:29;;;;;;;12.88;3.95;;;;;;;5.74;100.00;101228.56;5093392;28;20027;-67
2020/12/09 07:48:08;;;;;;;8.30;1.20;;;;;;;5.73;100.00;101232.31;5093246;28;20055;-65
2020/12/09 07:50:35;;;;;;;10.18;1.75;;;;;;;5.71;100.00;101237.06;5093393;28;20035;-65
2020/12/09 07:53:01;;;;;;;19.55;2.42;;;;;;;5.71;100.00;101239.78;5093198;28;20119;-66
2020/12/09 07:55:27;;;;;;;11.40;2.47;;;;;;;5.69;100.00;101224.75;5093184;28;20036;-65
2020/12/09 07:58:06;;;;;;;12.48;1.60;;;;;;;5.67;100.00;101230.38;5092972;28;20090;-66
2020/12/09 08:00:40;;;;;;;16.58;2.75;;;;;;;5.68;100.00;101226.63;5093112;28;20036;-65
2020/12/09 08:03:15;;;;;;;12.05;2.63;;;;;;;5.68;100.00;101223.91;5093188;28;20032;-65
2020/12/09 08:05:40;;;;;;;;;;;;;;;5.70;100.00;101238.09;5093452;28;20122;-64
2020/12/09 08:08:17;;;;;;;12.70;2.13;;;;;;;5.71;100.00;101234.34;5092717;28;20011;-65
2020/12/09 08:10:45;;;;;;;8.98;1.63;;;;;;;5.72;100.00;101225.19;5092808;28;20115;-65
2020/12/09 08:13:13;;;;;;;9.30;1.60;;;;;;;5.73;100.00;101231.47;5092575;28;20039;-65
2020/12/09 08:15:41;;;;;;;13.35;1.92;;;;;;;5.74;100.00;101238.56;5092724;28;20500;-63
2020/12/09 08:18:08;;;;;;;9.77;1.55;;;;;;;5.77;100.00;101253.56;5092577;28;20046;-65
2020/12/09 08:20:47;;;;;;;9.98;2.72;;;;;;;5.79;100.00;101246.09;5092762;28;20032;-64
2020/12/09 08:23:13;;;;;;;10.07;1.15;;;;;;;5.81;100.00;101244.00;5092595;28;20044;-67
2020/12/09 08:25:53;;;;;;;11.50;2.25;;;;;;;5.83;100.00;101240.03;5092429;28;20050;-63
2020/12/09 08:28:24;;;;;;;10.95;1.70;;;;;;;5.85;100.00;101229.00;5092401;28;20497;-66
2020/12/09 08:30:51;;;;;;;10.25;2.05;;;;;;;5.85;100.00;101234.41;5092440;28;20044;-66
2020/12/09 08:33:19;;;;;;;12.32;1.73;;;;;;;5.84;100.00;101221.91;5092118;28;20086;-67
2020/12/09 08:36:06;;;;;;;11.40;2.72;;;;;;;5.81;100.00;101222.31;5092649;28;20115;-65
2020/12/09 08:38:36;;;;;;;17.10;2.10;;;;;;;5.79;100.00;101225.22;5092152;28;20043;-64
2020/12/09 08:41:08;;;;;;;9.98;1.67;;;;;;;5.79;100.00;101224.41;5092390;28;20028;-64
2020/12/09 08:43:35;;;;;;;21.90;2.25;;;;;;;5.80;100.00;101226.06;5092336;28;20039;-64
2020/12/09 08:46:05;;;;;;;11.70;2.08;;;;;;;5.79;100.00;101230.66;5092186;28;20076;-64
2020/12/09 08:48:33;;;;;;;8.77;1.67;;;;;;;5.79;100.00;101224.41;5092199;28;20032;-65
2020/12/09 08:50:59;;;;;;;16.63;2.03;;;;;;;5.77;100.00;101223.75;5092204;28;20032;-65
2020/12/09 08:53:24;;;;;;;15.02;2.75;;;;;;;5.74;100.00;101228.56;5092198;28;20071;-65
2020/12/09 08:55:50;;;;;;;8.07;2.30;;;;;;;5.75;100.00;101232.09;5092279;28;20032;-64
2020/12/09 08:58:17;;;;;;;15.38;1.48;;;;;;;5.74;100.00;101227.72;5091950;28;20451;-64
2020/12/09 09:00:43;;;;;;;18.10;2.40;;;;;;;5.73;100.00;101221.47;5092075;28;20493;-66
2020/12/09 09:03:13;;;;;;;10.68;2.10;;;;;;;5.72;100.00;101214.34;5092172;28;20038;-64
2020/12/09 09:05:40;;;;;;;13.80;2.60;;;;;;;5.74;100.00;101223.13;5091727;28;20500;-65
2020/12/09 09:08:15;;;;;;;12.40;2.63;;;;;;;5.75;100.00;101219.38;5091707;28;20039;-65
2020/12/09 09:10:42;;;;;;;7.75;1.92;;;;;;;5.78;100.00;101220.00;5091869;28;20474;-65
2020/12/09 09:13:08;;;;;;;11.98;2.20;;;;;;;5.81;100.00;101222.31;5091747;28;20036;-64
2020/12/09 09:15:35;;;;;;;12.93;3.38;;;;;;;5.86;100.00;101230.66;5091749;28;20397;-65
2020/12/09 09:18:05;;;;;;;12.35;2.38;;;;;;;5.88;100.00;101229.44;5091674;28;20036;-65
2020/12/09 09:20:31;;;;;;;13.48;2.83;;;;;;;5.92;100.00;101235.34;5091691;28;20393;-64
2020/12/09 09:22:57;;;;;;;14.80;2.65;;;;;;;5.93;100.00;101231.59;5088399;28;20028;-68
2020/12/09 09:25:24;;;;;;;11.82;2.83;;;;;;;5.95;100.00;101237.63;5093939;28;20040;-66
2020/12/09 09:27:51;;;;;;;10.95;2.63;;;;;;;5.97;100.00;101227.44;5091215;28;20052;-69
2020/12/09 09:30:18;;;;;;;17.95;2.63;;;;;;;5.99;100.00;101219.91;5091416;28;20544;-69
2020/12/09 09:32:43;;;;;;;11.88;3.78;;;;;;;6.02;100.00;101214.91;5090781;28;20115;-68
2020/12/09 09:35:09;;;;;;;12.77;2.70;;;;;;;6.07;100.00;101222.44;5091073;28;20113;-67
2020/12/09 09:37:42;;;;;;;10.45;3.33;;;;;;;6.08;100.00;101224.13;5090450;28;20024;-69
2020/12/09 09:40:08;;;;;;;13.15;2.53;;;;;;;6.10;100.00;101216.63;5091367;28;20028;-71
2020/12/09 09:42:34;;;;;;;11.68;2.67;;;;;;;6.11;100.00;101206.63;5091593;28;20032;-70
2020/12/09 09:45:01;;;;;;;14.23;3.00;;;;;;;6.13;100.00;101221.66;5089943;28;20050;-71
2020/12/09 09:47:27;;;;;;;16.63;3.95;;;;;;;6.17;100.00;101217.47;5091031;28;20036;-64
2020/12/09 09:49:53;;;;;;;13.80;2.95;;;;;;;6.21;100.00;101224.16;5091244;28;20046;-67
2020/12/09 09:52:18;;;;;;;12.02;3.30;;;;;;;6.21;100.00;101224.16;5090109;28;20068;-66
2020/12/09 09:54:44;;;;;;;13.15;3.00;;;;;;;6.22;100.00;101220.41;5091166;28;20044;-67
2020/12/09 09:57:10;;;;;;;13.73;4.07;;;;;;;6.24;100.00;101223.75;5091253;28;20044;-65
2020/12/09 09:59:35;;;;;;;11.40;4.35;;;;;;;6.23;100.00;101227.50;5091196;28;20044;-67
2020/12/09 10:02:01;;;;;;;13.70;4.22;;;;;;;6.23;100.00;101222.06;5091184;28;20047;-65
2020/12/09 10:04:27;;;;;;;12.75;4.57;;;;;;;6.23;100.00;101232.94;5091858;28;20036;-70
2020/12/09 10:06:52;;;;;;;15.88;4.55;;;;;;;6.22;100.00;101231.25;5102396;28;20440;-68
2020/12/09 10:09:18;;;;;;;20.50;5.10;;;;;;;6.24;100.00;101228.34;5090830;28;20085;-67
2020/12/09 10:11:44;;;;;;;12.20;4.30;;;;;;;6.24;100.00;101223.75;5091025;28;20414;-65
2020/12/09 10:14:10;;;;;;;14.52;3.83;;;;;;;6.26;100.00;101224.41;5090457;28;20035;-64
2020/12/09 10:16:36;;;;;;;19.33;4.05;;;;;;;6.27;100.00;101228.78;5091037;28;20054;-65
2020/12/09 10:19:03;;;;;;;17.27;4.38;;;;;;;6.29;100.00;101215.84;5090651;28;20035;-67
2020/12/09 10:21:34;;;;;;;14.90;4.28;;;;;;;6.32;100.00;101214.59;5090514;28;20067;-65
2020/12/09 10:24:01;;;;;;;13.93;4.38;;;;;;;6.35;100.00;101215.03;5090755;28;20473;-68
2020/12/09 10:26:37;;;;;;;21.88;4.43;;;;;;;6.39;100.00;101209.19;5090654;28;20127;-67
2020/12/09 10:29:07;;;;;;;21.83;4.60;;;;;;;6.41;100.00;101212.53;5070775;28;20052;-66
2020/12/09 10:31:42;;;;;;;12.25;4.72;;;;;;;6.40;100.00;101208.13;5072263;28;20059;-65
2020/12/09 10:34:11;;;;;;;26.25;5.50;;;;;;;6.42;100.00;101204.19;5090695;28;20139;-65
2020/12/09 10:36:39;;;;;;;15.60;4.88;;;;;;;6.45;100.00;101205.66;5090876;28;20040;-66
2020/12/09 10:39:07;;;;;;;15.13;4.80;;;;;;;6.47;100.00;101190.00;5090842;28;20127;-65
2020/12/09 10:41:39;;;;;;;17.17;5.07;;;;;;;6.48;100.00;101197.09;5091031;28;20454;-66
2020/12/09 10:44:05;;;;;;;17.17;4.53;;;;;;;6.49;100.00;101194.19;5090693;28;20062;-66
2020/12/09 10:46:33;;;;;;;17.00;4.88;;;;;;;6.51;100.00;101185.84;5090610;28;20093;-66
2020/12/09 10:48:59;;;;;;;15.52;5.05;;;;;;;6.52;100.00;101182.06;5090727;28;20043;-66
2020/12/09 10:51:26;;;;;;;13.57;4.75;;;;;;;6.54;100.00;101177.28;5089536;28;20404;-66
2020/12/09 10:53:52;;;;;;;19.60;5.45;;;;;;;6.58;100.00;101175.81;5090784;28;20106;-66
2020/12/09 10:56:25;;;;;;;14.15;5.53;;;;;;;6.62;100.00;101174.38;5090593;28;20498;-66
2020/12/09 10:58:51;;;;;;;17.10;4.57;;;;;;;6.66;100.00;101172.91;5090659;28;20042;-65
2020/12/09 11:01:21;;;;;;;10.15;4.28;;;;;;;6.71;100.00;101170.38;5090617;28;20036;-67
2020/12/09 11:03:47;;;;;;;17.02;4.88;;;;;;;6.75;100.00;101168.91;5093775;28;20036;-66
2020/12/09 11:06:13;;;;;;;20.90;5.25;;;;;;;6.77;100.00;101158.72;5094127;28;20036;-66
2020/12/09 11:08:39;;;;;;;20.42;5.40;;;;;;;6.80;100.00;101152.88;5094127;28;20128;-66
2020/12/09 11:11:05;;;;;;;21.42;5.93;;;;;;;6.83;100.00;101147.00;5093902;28;20122;-65
2020/12/09 11:13:31;;;;;;;20.02;6.20;;;;;;;6.86;100.00;101157.44;5094011;28;20068;-65
2020/12/09 11:15:57;;;;;;;11.70;4.68;;;;;;;6.90;100.00;101147.00;5093364;28;20043;-66
2020/12/09 11:18:23;;;;;;;20.85;5.85;;;;;;;6.93;100.00;101130.28;5092331;28;20497;-67
2020/12/09 11:20:48;;;;;;;16.85;7.75;;;;;;;6.95;100.00;101131.75;5093941;28;20123;-66